createdAt,value
2018-08-19T00:00:59.553Z,98667.39
2018-08-19T00:03:29.242Z,98666.67
2018-08-19T00:05:58.906Z,98664.45
2018-08-19T00:08:28.594Z,98658.78
2018-08-19T00:11:08.714Z,98659.58
2018-08-19T00:13:38.850Z,98656.20
2018-08-19T00:16:09.837Z,98656.07
2018-08-19T00:19:21.509Z,98652.77
2018-08-19T00:21:51.269Z,98661.17
2018-08-19T00:24:21.028Z,98650.11
2018-08-19T00:26:54.140Z,98659.32
2018-08-19T00:29:33.193Z,98656.94
2018-08-19T00:32:02.999Z,98654.56
2018-08-19T00:34:40.089Z,98655.98
2018-08-19T00:37:10.012Z,98651.44
2018-08-19T00:39:40.284Z,98660.49
2018-08-19T00:42:11.440Z,98653.05
2018-08-19T00:44:42.802Z,98651.63
2018-08-19T00:47:12.823Z,98646.88
2018-08-19T00:49:45.070Z,98652.46
2018-08-19T00:52:16.135Z,98646.66
2018-08-19T00:54:45.851Z,98643.50
2018-08-19T00:57:16.060Z,98655.66
2018-08-19T00:59:45.899Z,98658.22
2018-08-19T01:02:15.564Z,98655.62
2018-08-19T01:04:45.537Z,98654.48
2018-08-19T01:07:16.106Z,98658.52
2018-08-19T01:09:46.051Z,98658.19
2018-08-19T01:12:15.991Z,98663.03
2018-08-19T01:14:45.812Z,98665.69
2018-08-19T01:17:16.737Z,98664.03
2018-08-19T01:19:47.128Z,98664.30
2018-08-19T01:22:20.320Z,98668.50
2018-08-19T01:24:50.381Z,98657.67
2018-08-19T01:27:20.301Z,98665.23
2018-08-19T01:29:49.978Z,98664.42
2018-08-19T01:32:21.908Z,98658.59
2018-08-19T01:34:51.614Z,98666.13
2018-08-19T01:37:32.044Z,98666.39
2018-08-19T01:40:01.752Z,98665.33
2018-08-19T01:42:31.491Z,98669.83
2018-08-19T01:45:01.674Z,98667.44
2018-08-19T01:47:31.412Z,98663.25
2018-08-19T01:50:32.513Z,98657.03
2018-08-19T01:53:02.127Z,98661.44
2018-08-19T01:55:31.891Z,98638.36
2018-08-19T02:12:15.509Z,98657.52
2018-08-19T02:14:45.640Z,98659.00
2018-08-19T02:17:15.934Z,98652.41
2018-08-19T02:19:45.833Z,98654.73
2018-08-19T02:23:04.762Z,98654.03
2018-08-19T02:25:42.235Z,98657.55
2018-08-19T02:28:13.194Z,98651.30
2018-08-19T02:31:02.734Z,98652.73
2018-08-19T02:33:35.533Z,98654.31
2018-08-19T02:36:06.614Z,98649.53
2018-08-19T02:38:39.130Z,98651.73
2018-08-19T02:41:08.776Z,98653.19
2018-08-19T02:43:45.023Z,98655.83
2018-08-19T02:46:14.882Z,98653.30
2018-08-19T02:52:24.160Z,98644.94
2018-08-19T02:54:54.637Z,98642.91
2018-08-19T02:57:27.222Z,98641.35
2018-08-19T02:59:58.257Z,98645.94
2018-08-19T03:05:22.998Z,98644.45
2018-08-19T03:07:57.144Z,98642.06
2018-08-19T03:10:27.782Z,98642.04
2018-08-19T03:12:58.281Z,98637.00
2018-08-19T03:18:23.421Z,98636.52
2018-08-19T03:20:54.174Z,98635.70
2018-08-19T03:23:25.242Z,98636.77
2018-08-19T03:25:55.969Z,98633.51
2018-08-19T03:28:47.258Z,98633.62
2018-08-19T03:31:22.723Z,98631.22
2018-08-19T03:33:52.826Z,98629.91
2018-08-19T03:36:23.959Z,98628.78
2018-08-19T03:39:01.377Z,98625.57
2018-08-19T03:41:31.917Z,98514.23
2018-08-19T03:44:02.145Z,98630.86
2018-08-19T03:46:33.594Z,98632.55
2018-08-19T03:49:04.059Z,98633.48
2018-08-19T03:51:33.644Z,98630.86
2018-08-19T03:54:05.884Z,98635.53
2018-08-19T03:56:36.203Z,98632.13
2018-08-19T03:59:08.017Z,98641.84
2018-08-19T04:01:46.695Z,98644.86
2018-08-19T04:04:17.731Z,98643.34
2018-08-19T04:06:47.509Z,98643.59
2018-08-19T04:10:01.385Z,98641.39
2018-08-19T04:12:31.981Z,98649.67
2018-08-19T04:15:03.145Z,98649.45
2018-08-19T04:17:33.349Z,98654.00
2018-08-19T04:20:07.915Z,98654.76
2018-08-19T04:22:37.827Z,98658.73
2018-08-19T04:25:07.649Z,98661.24
2018-08-19T04:27:37.431Z,98652.39
2018-08-19T04:30:07.606Z,98656.73
2018-08-19T04:32:37.790Z,98654.70
2018-08-19T04:35:09.015Z,98656.11
2018-08-19T04:37:39.105Z,98660.92
2018-08-19T04:45:56.707Z,98652.78
2018-08-19T04:48:28.344Z,98659.77
2018-08-19T04:50:58.432Z,98653.86
2018-08-19T04:53:28.530Z,98657.94
2018-08-19T04:55:58.158Z,98661.17
2018-08-19T04:58:27.799Z,98657.69
2018-08-19T05:08:05.967Z,98660.84
2018-08-19T05:10:37.897Z,98666.58
2018-08-19T05:13:31.807Z,98519.33
2018-08-19T05:16:02.408Z,98673.35
2018-08-19T05:18:33.965Z,98674.79
2018-08-19T05:21:11.035Z,98672.56
2018-08-19T05:26:20.621Z,98678.45
2018-08-19T05:29:06.139Z,98681.17
2018-08-19T05:31:39.232Z,98675.29
2018-08-19T05:34:21.998Z,98671.76
2018-08-19T05:36:52.167Z,98673.04
2018-08-19T05:39:22.321Z,98676.69
2018-08-19T05:42:03.841Z,98678.59
2018-08-19T05:46:52.192Z,98678.36
2018-08-19T05:58:04.338Z,98686.50
2018-08-19T06:00:35.969Z,98690.42
2018-08-19T06:05:49.206Z,98688.50
2018-08-19T06:08:21.464Z,98688.63
2018-08-19T06:10:54.412Z,98691.92
2018-08-19T06:13:26.885Z,98695.58
2018-08-19T06:15:58.394Z,98698.35
2018-08-19T06:18:33.209Z,98700.09
2018-08-19T06:24:40.109Z,98702.25
2018-08-19T06:27:17.760Z,98707.91
2018-08-19T06:29:57.870Z,98700.36
2018-08-19T06:32:57.461Z,98699.03
2018-08-19T06:35:36.641Z,98700.28
2018-08-19T06:39:50.881Z,98702.58
2018-08-19T06:45:35.401Z,98712.67
2018-08-19T06:51:18.277Z,98706.66
2018-08-19T06:54:05.903Z,98708.33
2018-08-19T06:57:48.088Z,98711.06
2018-08-19T07:06:47.572Z,98722.73
2018-08-19T07:09:30.817Z,98720.08
2018-08-19T07:12:15.328Z,98719.87
2018-08-19T07:17:53.609Z,98723.36
2018-08-19T07:23:36.098Z,98720.57
2018-08-19T07:32:29.112Z,98721.80
2018-08-19T07:49:10.880Z,98737.91
2018-08-19T07:51:48.978Z,98731.77
2018-08-19T07:54:19.835Z,98731.41
2018-08-19T07:56:50.053Z,98733.93
2018-08-19T07:59:20.136Z,98730.74
2018-08-19T08:01:51.367Z,98732.57
2018-08-19T08:04:27.327Z,98734.23
2018-08-19T08:06:59.912Z,98728.67
2018-08-19T08:09:31.030Z,98731.16
2018-08-19T08:12:02.265Z,98737.66
2018-08-19T08:14:33.329Z,98737.56
2018-08-19T08:17:03.674Z,98744.98
2018-08-19T08:19:38.085Z,98740.47
2018-08-19T08:22:14.212Z,98744.73
2018-08-19T08:24:45.059Z,98748.31
2018-08-19T08:27:15.010Z,98756.59
2018-08-19T08:29:48.180Z,98752.84
2018-08-19T08:32:24.652Z,98748.52
2018-08-19T08:35:02.396Z,98750.00
2018-08-19T08:41:00.134Z,98748.50
2018-08-19T08:43:30.105Z,98743.41
2018-08-19T08:46:02.427Z,98742.76
2018-08-19T08:48:35.424Z,98738.92
2018-08-19T08:51:07.114Z,98741.50
2018-08-19T08:53:45.367Z,98737.52
2018-08-19T08:56:15.889Z,98733.63
2018-08-19T08:58:51.613Z,98728.69
2018-08-19T09:01:21.552Z,98727.04
2018-08-19T09:03:51.349Z,98722.88
2018-08-19T09:06:35.513Z,98721.30
2018-08-19T09:09:08.187Z,98718.57
2018-08-19T09:11:49.058Z,98719.69
2018-08-19T09:14:20.977Z,98723.73
2018-08-19T09:16:57.638Z,98723.55
2018-08-19T09:22:28.286Z,98733.48
2018-08-19T09:24:59.211Z,98724.62
2018-08-19T09:30:35.026Z,98723.81
2018-08-19T09:33:21.265Z,98719.72
2018-08-19T09:35:51.613Z,98719.58
2018-08-19T09:38:23.384Z,98723.45
2018-08-19T09:43:29.635Z,98721.22
2018-08-19T09:46:02.766Z,98721.31
2018-08-19T09:48:37.213Z,98721.91
2018-08-19T09:51:14.404Z,98715.69
2018-08-19T09:56:52.946Z,98710.86
2018-08-19T10:02:32.495Z,98702.65
2018-08-19T10:06:01.645Z,98698.39
2018-08-19T10:17:40.914Z,98690.30
2018-08-19T10:20:31.049Z,98686.66
2018-08-19T10:23:06.245Z,98681.16
2018-08-19T10:25:36.013Z,98676.00
2018-08-19T10:28:06.726Z,98675.49
2018-08-19T10:30:56.825Z,98679.39
2018-08-19T10:33:35.935Z,98671.12
2018-08-19T10:36:06.266Z,98668.95
2018-08-19T10:38:38.400Z,98665.95
2018-08-19T10:44:12.576Z,98636.68
2018-08-19T11:04:02.715Z,98645.98
2018-08-19T11:06:43.309Z,98644.86
2018-08-19T11:09:14.184Z,98644.14
2018-08-19T11:11:52.370Z,98645.48
2018-08-19T11:14:33.452Z,98642.30
2018-08-19T11:17:04.261Z,98642.58
2018-08-19T11:19:41.060Z,98640.47
2018-08-19T11:22:20.683Z,98632.70
2018-08-19T11:25:02.754Z,98631.08
2018-08-19T11:27:39.857Z,98625.12
2018-08-19T11:30:29.262Z,98631.85
2018-08-19T11:33:09.169Z,98629.37
2018-08-19T11:35:47.896Z,98626.30
2018-08-19T11:38:20.072Z,98620.82
2018-08-19T11:40:57.647Z,98619.13
2018-08-19T11:43:27.932Z,98620.29
2018-08-19T11:48:58.945Z,98608.04
2018-08-19T11:52:05.394Z,98608.02
2018-08-19T11:54:35.552Z,98603.38
2018-08-19T12:00:19.599Z,98598.03
2018-08-19T12:02:50.453Z,98594.79
2018-08-19T12:05:21.332Z,98600.55
2018-08-19T12:07:55.968Z,98597.98
2018-08-19T12:10:29.496Z,98593.70
2018-08-19T12:13:25.500Z,98597.23
2018-08-19T12:32:11.444Z,98570.89
2018-08-19T12:35:01.103Z,98568.37
2018-08-19T12:37:32.566Z,98563.62
2018-08-19T12:40:05.159Z,98563.49
2018-08-19T12:43:12.296Z,98557.99
2018-08-19T12:45:44.064Z,98552.41
2018-08-19T12:48:31.540Z,98552.50
2018-08-19T12:51:15.036Z,98549.77
2018-08-19T12:59:19.454Z,98547.04
2018-08-19T13:01:56.103Z,98543.61
2018-08-19T13:09:45.242Z,98545.89
2018-08-19T13:12:19.184Z,98538.27
2018-08-19T13:14:50.563Z,98537.56
2018-08-19T13:17:33.062Z,98537.72
2018-08-19T13:20:15.345Z,98534.17
2018-08-19T13:25:39.574Z,98521.73
2018-08-19T13:28:12.347Z,98525.62
2018-08-19T13:30:43.841Z,98520.28
2018-08-19T13:33:13.915Z,98515.11
2018-08-19T13:35:43.744Z,98510.66
2018-08-19T13:38:24.151Z,98517.25
2018-08-19T13:40:53.701Z,98510.90
2018-08-19T13:43:24.089Z,98515.88
2018-08-19T13:45:54.645Z,98511.69
2018-08-19T13:48:28.250Z,98520.70
2018-08-19T13:50:59.849Z,98528.64
2018-08-19T13:53:30.535Z,98538.19
2018-08-19T13:56:01.091Z,98533.20
2018-08-19T13:58:35.203Z,98531.88
2018-08-19T14:01:06.768Z,98529.61
2018-08-19T14:03:36.910Z,98513.82
2018-08-19T14:06:08.341Z,98523.96
2018-08-19T14:08:40.152Z,98510.78
2018-08-19T14:11:10.578Z,98511.28
2018-08-19T14:13:41.238Z,98514.23
2018-08-19T14:16:28.789Z,98510.44
2018-08-19T14:19:03.325Z,98505.80
2018-08-19T14:21:36.783Z,98502.48
2018-08-19T14:24:07.564Z,98504.10
2018-08-19T14:26:38.647Z,98505.66
2018-08-19T14:29:09.217Z,98504.10
2018-08-19T14:31:39.600Z,98467.13
2018-08-19T14:46:16.366Z,98479.38
2018-08-19T14:49:00.103Z,98480.02
2018-08-19T14:54:52.891Z,98474.52
2018-08-19T15:10:00.714Z,98463.30
2018-08-19T15:12:51.691Z,98454.81
2018-08-19T15:15:32.846Z,98454.51
2018-08-19T15:27:07.021Z,98428.21
2018-08-19T15:29:41.660Z,98422.02
2018-08-19T15:32:13.134Z,98421.25
2018-08-19T15:37:48.443Z,98409.66
2018-08-19T15:40:29.689Z,98411.98
2018-08-19T17:34:59.465Z,98373.84
2018-08-19T17:40:36.406Z,98364.39
2018-08-19T18:07:30.326Z,98388.75
2018-08-19T18:16:25.609Z,98387.31
2018-08-19T18:22:44.880Z,98386.35
2018-08-19T18:25:17.555Z,98392.87
2018-08-19T18:27:50.202Z,98392.63
2018-08-19T18:30:40.416Z,98394.55
2018-08-19T18:33:29.004Z,98400.14
2018-08-19T18:38:59.453Z,98394.02
2018-08-19T18:41:44.827Z,98392.80
2018-08-19T18:44:34.330Z,98396.16
2018-08-19T18:47:18.385Z,98402.16
2018-08-19T19:03:42.371Z,98415.27
2018-08-19T19:06:56.441Z,98413.77
2018-08-19T19:09:37.088Z,98417.03
2018-08-19T19:16:42.209Z,98418.16
2018-08-19T19:19:17.233Z,98421.36
2018-08-19T19:21:57.635Z,98418.86
2018-08-19T19:33:03.999Z,98430.77
2018-08-19T19:35:52.298Z,98424.75
2018-08-19T19:38:52.122Z,98433.28
2018-08-19T19:41:31.173Z,98433.10
2018-08-19T19:44:16.120Z,98442.44
2018-08-19T19:49:55.684Z,98440.73
2018-08-19T19:52:35.524Z,98439.88
2018-08-19T19:56:32.421Z,98438.35
2018-08-19T20:05:21.474Z,98442.83
2018-08-19T20:07:57.233Z,98441.13
2018-08-19T20:13:58.568Z,98451.48
2018-08-19T20:22:21.337Z,98441.92
2018-08-19T20:25:08.769Z,98441.67
2018-08-19T20:28:10.911Z,98441.11
2018-08-19T20:48:40.967Z,98451.28
2018-08-19T20:51:11.846Z,98450.61
2018-08-19T20:54:03.926Z,98446.19
2018-08-19T20:56:39.899Z,98449.52
2018-08-19T20:59:14.057Z,98447.69
2018-08-19T21:01:46.133Z,98451.16
